Terminal Aerodrome Forecast
Issued by NWS Tulsa, OK

Home | Current Version | Previous Version | Text Only | Print | Product List | Glossary On
Versions: 1 2 3 4 5 6 7 8 9 10 11 12 13 14 15 16 17
000
FTUS44 KTSA 182300
TAFTUL
TAF
KTUL 182320Z 1900/1924 10007KT P6SM FEW040 SCT100
     FM190200 14005KT P6SM SCT250
     FM190900 16005KT 5SM BR SCT025
     FM191500 16009KT P6SM SCT040=

USA.gov is the U.S. government's official web portal to all federal, state and local government web resources and services.